Hubert, Texas
Current Conditions -  °F | °C
As of 5:35 AM on Friday 31 Oct 2014 (Local Time) from KBEA Reporting Station
Thunderstorm Thunderstorm  
Wind Chill: 70°   Ceiling: 900
Heat Index: 70°   Visibility: 10mi
Dew Point: 70°   Wind: 5mph
Humidity: 100%   Direction: 40°NE
Pressure: 30.08"   Gusts: NA
Location:  28.0654°N, 97.7489°W
Report Text: KBEA 311035Z AUTO 04004KT 10SM -VCTSRA BKN009 BKN015 OVC030 21/21 A3008 RMK AO2 LTG DSNT NW THRU E P0007 T02100210
Loading
Personal Weather Stations






























Interactive Weather Map
Tropical Storm Tracking
New forecast layout! Learn more

10-Day Weather Forecast

Advertisements
Track Severe Weather on mobile